createdAt,value
2022-08-04T00:02:32.028Z,0
2022-08-04T00:04:11.778Z,0
2022-08-04T00:05:51.549Z,0
2022-08-04T00:07:31.319Z,0
2022-08-04T00:09:11.080Z,0
2022-08-04T00:12:30.623Z,0
2022-08-04T00:14:10.392Z,0
2022-08-04T00:15:50.129Z,0
2022-08-04T00:17:29.907Z,0
2022-08-04T00:19:09.665Z,0
2022-08-04T00:22:29.199Z,0
2022-08-04T00:25:48.718Z,0
2022-08-04T00:27:28.494Z,0
2022-08-04T00:29:08.245Z,0
2022-08-04T00:32:27.775Z,0
2022-08-04T00:34:07.531Z,0
2022-08-04T00:35:47.308Z,0
2022-08-04T00:37:27.061Z,0
2022-08-04T00:39:06.842Z,0
2022-08-04T00:40:46.601Z,0
2022-08-04T00:42:26.388Z,0
2022-08-04T00:44:06.123Z,0
2022-08-04T00:45:45.883Z,0
2022-08-04T00:47:25.665Z,0
2022-08-04T00:49:05.438Z,0
2022-08-04T00:52:24.940Z,0
2022-08-04T00:54:04.715Z,0
2022-08-04T00:55:44.487Z,0
2022-08-04T00:57:24.251Z,0
2022-08-04T00:59:04.005Z,0
2022-08-04T01:02:23.532Z,0
2022-08-04T01:04:03.307Z,0
2022-08-04T01:05:43.063Z,0
2022-08-04T01:07:22.816Z,0
2022-08-04T01:09:02.578Z,0
2022-08-04T01:12:22.109Z,0
2022-08-04T01:14:01.886Z,0
2022-08-04T01:15:41.654Z,0
2022-08-04T01:17:21.408Z,0
2022-08-04T01:19:01.188Z,0
2022-08-04T01:22:20.701Z,0
2022-08-04T01:24:00.457Z,0
2022-08-04T01:25:40.231Z,0
2022-08-04T01:27:20.010Z,0
2022-08-04T01:28:59.761Z,0
2022-08-04T01:32:19.302Z,0
2022-08-04T01:33:59.070Z,0
2022-08-04T01:35:38.823Z,0
2022-08-04T01:37:18.575Z,0
2022-08-04T01:38:58.338Z,0
2022-08-04T01:40:38.117Z,0
2022-08-04T01:42:17.870Z,0
2022-08-04T01:43:57.631Z,0
2022-08-04T01:45:37.410Z,0
2022-08-04T01:47:17.169Z,0
2022-08-04T01:48:56.925Z,0
2022-08-04T01:50:36.712Z,0
2022-08-04T01:52:16.453Z,0
2022-08-04T01:53:56.230Z,0
2022-08-04T01:55:35.988Z,0
2022-08-04T01:57:15.754Z,0
2022-08-04T01:58:55.517Z,0
2022-08-04T02:02:15.043Z,0
2022-08-04T02:03:54.803Z,0
2022-08-04T02:05:34.575Z,0
2022-08-04T02:07:14.359Z,0
2022-08-04T02:08:54.087Z,0
2022-08-04T02:12:13.640Z,0
2022-08-04T02:13:53.404Z,0
2022-08-04T02:15:33.145Z,0
2022-08-04T02:17:12.918Z,0
2022-08-04T02:18:52.675Z,0
2022-08-04T02:22:12.220Z,0
2022-08-04T02:23:52.004Z,0
2022-08-04T02:25:31.745Z,0
2022-08-04T02:27:11.522Z,0
2022-08-04T02:28:51.272Z,0
2022-08-04T02:30:31.019Z,0
2022-08-04T02:32:10.784Z,0
2022-08-04T02:33:50.561Z,0
2022-08-04T02:35:30.310Z,0
2022-08-04T02:37:10.075Z,0
2022-08-04T02:38:49.870Z,0
2022-08-04T02:40:29.608Z,0
2022-08-04T02:42:09.393Z,0
2022-08-04T02:43:49.142Z,0
2022-08-04T02:45:28.901Z,0
2022-08-04T02:47:08.696Z,0
2022-08-04T02:48:48.437Z,0
2022-08-04T02:53:47.726Z,0
2022-08-04T02:55:27.484Z,0
2022-08-04T02:57:07.293Z,0
2022-08-04T02:58:47.017Z,0
2022-08-04T03:02:06.566Z,0
2022-08-04T03:03:46.298Z,0
2022-08-04T03:05:26.071Z,0
2022-08-04T03:07:05.856Z,0
2022-08-04T03:08:45.595Z,0
2022-08-04T03:12:05.125Z,0
2022-08-04T03:13:44.888Z,0
2022-08-04T03:15:24.650Z,0
2022-08-04T03:17:04.427Z,0
2022-08-04T03:18:44.186Z,0
2022-08-04T03:22:03.707Z,0
2022-08-04T03:23:43.475Z,0
2022-08-04T03:25:23.261Z,0
2022-08-04T03:27:03.002Z,0
2022-08-04T03:28:42.759Z,0
2022-08-04T03:32:02.315Z,0
2022-08-04T03:33:42.068Z,0
2022-08-04T03:35:21.816Z,0
2022-08-04T03:37:01.583Z,0
2022-08-04T03:38:41.349Z,0
2022-08-04T03:40:21.118Z,0
2022-08-04T03:42:00.892Z,0
2022-08-04T03:43:40.653Z,0.12
2022-08-04T03:45:20.421Z,0
2022-08-04T03:47:00.187Z,0.12
2022-08-04T03:48:39.933Z,0
2022-08-04T03:51:59.497Z,0.12
2022-08-04T03:53:39.229Z,0.12
2022-08-04T03:55:19.000Z,0.12
2022-08-04T03:56:58.751Z,0.12
2022-08-04T03:58:38.512Z,0.25
2022-08-04T04:01:58.056Z,0.12
2022-08-04T04:03:37.814Z,0.25
2022-08-04T04:05:17.580Z,0.12
2022-08-04T04:06:57.347Z,0
2022-08-04T04:08:37.100Z,0.51
2022-08-04T04:11:56.643Z,0.64
2022-08-04T04:13:36.403Z,0.38
2022-08-04T04:15:16.168Z,0.51
2022-08-04T04:16:55.925Z,0.51
2022-08-04T04:18:35.689Z,0.51
2022-08-04T04:21:55.219Z,0.38
2022-08-04T04:23:34.983Z,0.9
2022-08-04T04:25:14.758Z,0.91
2022-08-04T04:26:54.508Z,0.91
2022-08-04T04:28:34.285Z,0.39
2022-08-04T04:31:53.808Z,0.65
2022-08-04T04:33:33.577Z,0.52
2022-08-04T04:35:13.333Z,0.52
2022-08-04T04:36:53.098Z,0.78
2022-08-04T04:38:32.857Z,0.91
2022-08-04T04:41:52.388Z,1.17
2022-08-04T04:43:32.162Z,0.65
2022-08-04T04:45:11.914Z,0.65
2022-08-04T04:46:51.674Z,0.79
2022-08-04T04:48:31.445Z,0.92
2022-08-04T04:50:11.193Z,1.45
2022-08-04T04:51:50.959Z,1.19
2022-08-04T04:53:30.734Z,1.05
2022-08-04T04:55:10.484Z,1.32
2022-08-04T04:56:50.259Z,1.33
2022-08-04T04:58:30.015Z,1.05
2022-08-04T05:01:49.539Z,0.93
2022-08-04T05:03:29.307Z,1.33
2022-08-04T05:05:09.077Z,1.2
2022-08-04T05:06:48.852Z,1.07
2022-08-04T05:08:28.604Z,1.07
2022-08-04T05:11:48.142Z,1.21
2022-08-04T05:13:27.913Z,1.21
2022-08-04T05:15:07.671Z,1.34
2022-08-04T05:16:47.427Z,1.34
2022-08-04T05:18:27.213Z,1.08
2022-08-04T05:20:06.961Z,1.21
2022-08-04T05:21:46.719Z,1.35
2022-08-04T05:23:26.482Z,1.08
2022-08-04T05:25:06.255Z,1.08
2022-08-04T05:26:46.016Z,1.35
2022-08-04T05:28:25.792Z,1.35
2022-08-04T05:31:45.306Z,1.08
2022-08-04T05:33:25.080Z,1.48
2022-08-04T05:35:04.841Z,1.35
2022-08-04T05:36:44.585Z,1.49
2022-08-04T05:38:24.347Z,1.49
2022-08-04T05:40:04.125Z,1.36
2022-08-04T05:41:43.900Z,1.63
2022-08-04T05:43:23.646Z,1.35
2022-08-04T05:45:03.430Z,1.49
2022-08-04T05:46:43.176Z,1.63
2022-08-04T05:51:42.481Z,1.5
2022-08-04T05:53:22.233Z,1.5
2022-08-04T05:55:02.005Z,1.77
2022-08-04T05:56:41.769Z,1.63
2022-08-04T05:58:21.523Z,1.77
2022-08-04T06:01:41.055Z,1.9
2022-08-04T06:03:20.838Z,1.63
2022-08-04T06:05:00.584Z,1.91
2022-08-04T06:06:40.340Z,1.77
2022-08-04T06:08:20.111Z,2.04
2022-08-04T06:09:59.895Z,1.91
2022-08-04T06:11:39.642Z,1.91
2022-08-04T06:13:19.405Z,2.04
2022-08-04T06:14:59.175Z,1.77
2022-08-04T06:16:38.938Z,1.77
2022-08-04T06:18:18.689Z,2.18
2022-08-04T06:21:38.234Z,1.77
2022-08-04T06:23:17.991Z,1.91
2022-08-04T06:24:57.744Z,2.18
2022-08-04T06:26:37.520Z,2.05
2022-08-04T06:28:17.288Z,2.32
2022-08-04T06:29:57.045Z,2.05
2022-08-04T06:31:36.819Z,2.32
2022-08-04T06:33:16.589Z,2.33
2022-08-04T06:34:56.332Z,2.19
2022-08-04T06:36:36.096Z,2.19
2022-08-04T06:38:15.884Z,2.19
2022-08-04T06:39:55.639Z,2.33
2022-08-04T06:41:35.418Z,2.47
2022-08-04T06:43:15.166Z,2.47
2022-08-04T06:44:54.936Z,2.48
2022-08-04T06:46:34.686Z,2.48
2022-08-04T06:48:14.473Z,2.48
2022-08-04T06:51:34.023Z,3.18
2022-08-04T06:53:13.752Z,2.77
2022-08-04T06:54:53.512Z,2.77
2022-08-04T06:56:33.274Z,2.77
2022-08-04T06:58:13.050Z,2.77
2022-08-04T06:59:52.800Z,3.19
2022-08-04T07:01:32.583Z,3.9
2022-08-04T07:03:12.329Z,1.12
2022-08-04T07:04:52.090Z,8.43
2022-08-04T07:06:31.878Z,7.84
2022-08-04T07:08:11.633Z,7.53
2022-08-04T07:09:51.390Z,7.09
2022-08-04T07:11:31.155Z,6.94
2022-08-04T07:13:10.927Z,6.94
2022-08-04T07:14:50.699Z,6.79
2022-08-04T07:16:30.460Z,6.65
2022-08-04T07:18:10.258Z,6.51
2022-08-04T07:19:49.981Z,6.49
2022-08-04T07:21:29.760Z,6.37
2022-08-04T07:23:09.518Z,6.38
2022-08-04T07:24:49.277Z,6.38
2022-08-04T07:26:29.042Z,6.23
2022-08-04T07:28:08.810Z,6.09
2022-08-04T07:29:48.550Z,6.09
2022-08-04T07:31:28.324Z,5.94
2022-08-04T07:33:08.092Z,5.65
2022-08-04T07:34:47.861Z,5.8
2022-08-04T07:36:27.636Z,5.64
2022-08-04T07:38:07.388Z,5.51
2022-08-04T07:41:26.915Z,5.51
2022-08-04T07:43:06.683Z,5.22
2022-08-04T07:44:46.450Z,5.21
2022-08-04T07:46:26.197Z,5.22
2022-08-04T07:51:25.504Z,5.06
2022-08-04T07:53:05.257Z,4.92
2022-08-04T07:54:45.046Z,4.77
2022-08-04T07:56:24.795Z,4.76
2022-08-04T07:58:04.551Z,4.92
2022-08-04T07:59:44.319Z,4.46
2022-08-04T08:03:03.846Z,4.62
2022-08-04T08:04:43.619Z,4.33
2022-08-04T08:06:23.361Z,4.62
2022-08-04T08:08:03.133Z,4.33
2022-08-04T08:09:42.907Z,4.32
2022-08-04T08:11:22.659Z,4.17
2022-08-04T08:13:02.498Z,4.17
2022-08-04T08:14:42.191Z,4.03
2022-08-04T08:16:21.972Z,4.17
2022-08-04T08:18:01.748Z,4.04
2022-08-04T08:21:21.269Z,3.87
2022-08-04T08:23:01.023Z,4.03
2022-08-04T08:24:40.785Z,3.89
2022-08-04T08:26:20.547Z,3.89
2022-08-04T08:28:00.327Z,3.89
2022-08-04T08:29:40.079Z,3.89
2022-08-04T08:31:19.842Z,3.73
2022-08-04T08:34:39.363Z,3.75
2022-08-04T08:36:19.125Z,3.61
2022-08-04T08:37:58.903Z,3.44
2022-08-04T08:41:18.413Z,3.59
2022-08-04T08:42:58.192Z,3.45
2022-08-04T08:44:37.974Z,3.46
2022-08-04T08:46:17.727Z,3.46
2022-08-04T08:47:57.474Z,3.46
2022-08-04T08:51:17.041Z,3.32
2022-08-04T08:52:56.780Z,3.15
2022-08-04T08:54:36.566Z,3.15
2022-08-04T08:56:16.309Z,3.15
2022-08-04T08:57:56.060Z,3.3
2022-08-04T09:01:15.599Z,3.16
2022-08-04T09:02:55.382Z,0.56
2022-08-04T09:04:35.131Z,0.55
2022-08-04T09:06:14.879Z,0.55
2022-08-04T09:07:54.650Z,0.54
2022-08-04T09:09:34.441Z,0.81
2022-08-04T09:11:14.174Z,2.19
2022-08-04T09:12:53.936Z,2.33
2022-08-04T09:14:33.718Z,1.79
2022-08-04T09:16:13.468Z,1.51
2022-08-04T09:17:53.251Z,1.51
2022-08-04T09:19:33.006Z,1.37
2022-08-04T09:21:12.768Z,1.78
2022-08-04T09:22:52.527Z,1.78
2022-08-04T09:26:12.064Z,1.92
2022-08-04T09:27:51.820Z,1.51
2022-08-04T09:29:31.594Z,1.36
2022-08-04T09:31:11.354Z,1.51
2022-08-04T09:32:51.133Z,1.78
2022-08-04T09:34:30.897Z,1.78
2022-08-04T09:36:10.664Z,1.65
2022-08-04T09:37:50.420Z,1.64
2022-08-04T09:42:49.699Z,1.64
2022-08-04T09:44:29.465Z,1.64
2022-08-04T09:46:09.229Z,1.64
2022-08-04T09:47:48.995Z,1.64
2022-08-04T09:49:28.768Z,1.64
2022-08-04T09:51:08.545Z,1.64
2022-08-04T09:52:48.293Z,1.64
2022-08-04T09:54:28.103Z,1.64
2022-08-04T09:56:07.830Z,1.64
2022-08-04T09:57:47.597Z,1.64
2022-08-04T10:01:07.120Z,1.78
2022-08-04T10:02:46.907Z,1.78
2022-08-04T10:04:26.646Z,1.64
2022-08-04T10:06:06.416Z,1.64
2022-08-04T10:07:46.189Z,1.64
2022-08-04T10:11:05.712Z,1.64
2022-08-04T10:12:45.469Z,1.78
2022-08-04T10:14:25.237Z,1.64
2022-08-04T10:16:05.000Z,1.64
2022-08-04T10:17:44.758Z,1.78
2022-08-04T10:21:04.290Z,1.64
2022-08-04T10:22:44.048Z,1.78
2022-08-04T10:24:23.814Z,1.78
2022-08-04T10:26:03.606Z,1.64
2022-08-04T10:27:43.351Z,1.78
2022-08-04T10:29:23.112Z,1.78
2022-08-04T10:31:02.880Z,1.78
2022-08-04T10:32:42.639Z,1.78
2022-08-04T10:34:22.422Z,1.78
2022-08-04T10:36:02.172Z,1.78
2022-08-04T10:37:41.945Z,1.78
2022-08-04T10:41:01.464Z,1.78
2022-08-04T10:42:41.223Z,1.78
2022-08-04T10:44:21.015Z,1.64
2022-08-04T10:46:00.763Z,1.64
2022-08-04T10:47:40.525Z,1.78
2022-08-04T10:49:20.295Z,1.78
2022-08-04T10:51:00.066Z,1.78
2022-08-04T10:52:39.823Z,1.78
2022-08-04T10:54:19.587Z,1.78
2022-08-04T10:55:59.341Z,1.78
2022-08-04T10:57:39.103Z,1.64
2022-08-04T11:00:58.636Z,1.78
2022-08-04T11:02:38.395Z,1.78
2022-08-04T11:04:18.163Z,1.78
2022-08-04T11:05:57.952Z,1.77
2022-08-04T11:07:37.706Z,1.78
2022-08-04T11:10:57.235Z,1.78
2022-08-04T11:12:36.986Z,1.77
2022-08-04T11:14:16.773Z,1.78
2022-08-04T11:15:56.544Z,1.78
2022-08-04T11:17:36.271Z,1.78
2022-08-04T11:19:16.052Z,1.77
2022-08-04T11:20:55.799Z,1.78
2022-08-04T11:24:15.335Z,1.64
2022-08-04T11:25:55.110Z,1.64
2022-08-04T11:27:34.870Z,1.92
2022-08-04T11:29:14.625Z,1.64
2022-08-04T11:30:54.395Z,1.64
2022-08-04T11:34:13.923Z,1.78
2022-08-04T11:35:53.693Z,1.64
2022-08-04T11:37:33.448Z,1.64
2022-08-04T11:39:13.232Z,1.64
2022-08-04T11:40:52.989Z,1.5
2022-08-04T11:42:32.747Z,1.77
2022-08-04T11:44:12.517Z,1.77
2022-08-04T11:45:52.293Z,1.64
2022-08-04T11:47:32.040Z,1.64
2022-08-04T11:50:51.581Z,1.77
2022-08-04T11:52:31.338Z,1.77
2022-08-04T11:54:11.102Z,1.63
2022-08-04T11:55:50.871Z,1.77
2022-08-04T11:57:30.618Z,1.64
2022-08-04T11:59:10.397Z,1.77
2022-08-04T12:00:50.179Z,1.77
2022-08-04T12:02:29.923Z,1.77
2022-08-04T12:04:09.697Z,1.77
2022-08-04T12:05:49.453Z,1.77
2022-08-04T12:07:29.225Z,1.77
2022-08-04T12:10:48.753Z,1.63
2022-08-04T12:12:28.516Z,1.77
2022-08-04T12:14:08.285Z,1.77
2022-08-04T12:15:48.044Z,1.77
2022-08-04T12:17:27.813Z,1.63
2022-08-04T12:19:07.566Z,1.63
2022-08-04T12:20:47.328Z,1.77
2022-08-04T12:22:27.102Z,1.77
2022-08-04T12:24:06.860Z,1.77
2022-08-04T12:25:46.621Z,1.77
2022-08-04T12:27:26.392Z,1.77
2022-08-04T12:30:45.921Z,1.64
2022-08-04T12:32:25.674Z,1.77
2022-08-04T12:34:05.436Z,1.77
2022-08-04T12:35:45.236Z,1.77
2022-08-04T12:37:24.969Z,1.63
2022-08-04T12:39:04.769Z,1.77
2022-08-04T12:40:44.504Z,1.77
2022-08-04T12:42:24.275Z,1.77
2022-08-04T12:44:04.037Z,1.77
2022-08-04T12:45:43.796Z,1.77
2022-08-04T12:47:23.561Z,1.64
2022-08-04T12:49:03.335Z,1.63
2022-08-04T12:50:43.083Z,1.63
2022-08-04T12:52:22.854Z,1.63
2022-08-04T12:54:02.636Z,1.63
2022-08-04T12:55:42.394Z,1.77
2022-08-04T12:57:22.149Z,1.77
2022-08-04T12:59:01.935Z,1.63
2022-08-04T13:00:41.676Z,1.63
2022-08-04T13:04:01.222Z,1.63
2022-08-04T13:07:20.730Z,1.76
2022-08-04T13:10:40.251Z,1.76
2022-08-04T13:12:20.024Z,1.77
2022-08-04T13:13:59.795Z,1.77
2022-08-04T13:15:39.571Z,1.77
2022-08-04T13:17:19.327Z,1.77
2022-08-04T13:20:38.855Z,1.49
2022-08-04T13:22:18.637Z,1.49
2022-08-04T13:23:58.387Z,1.63
2022-08-04T13:25:38.155Z,1.9
2022-08-04T13:27:17.997Z,1.63
2022-08-04T13:28:57.675Z,1.63
2022-08-04T13:30:37.443Z,1.9
2022-08-04T13:33:56.973Z,1.5
2022-08-04T13:35:36.753Z,1.63
2022-08-04T13:37:16.525Z,1.76
2022-08-04T13:40:36.036Z,1.63
2022-08-04T13:42:15.787Z,1.77
2022-08-04T13:43:55.552Z,1.77
2022-08-04T13:45:35.309Z,1.63
2022-08-04T13:47:15.102Z,1.63
2022-08-04T13:50:34.628Z,1.63
2022-08-04T13:52:14.384Z,1.63
2022-08-04T13:53:54.145Z,1.63
2022-08-04T13:55:33.938Z,1.76
2022-08-04T13:57:13.690Z,1.49
2022-08-04T13:58:53.434Z,2.18
2022-08-04T14:00:33.196Z,1.49
2022-08-04T14:02:12.994Z,1.49
2022-08-04T14:03:52.737Z,1.62
2022-08-04T14:05:32.502Z,1.49
2022-08-04T14:07:12.249Z,1.76
2022-08-04T14:10:31.817Z,1.63
2022-08-04T14:12:11.557Z,1.63
2022-08-04T14:13:51.303Z,1.76
2022-08-04T14:15:31.071Z,1.63
2022-08-04T14:17:10.870Z,1.63
2022-08-04T14:20:30.368Z,1.77
2022-08-04T14:23:49.914Z,1.63
2022-08-04T14:25:29.677Z,1.76
2022-08-04T14:27:09.470Z,1.63
2022-08-04T14:30:28.974Z,1.63
2022-08-04T14:32:08.734Z,1.63
2022-08-04T14:33:48.487Z,1.77
2022-08-04T14:35:28.284Z,1.77
2022-08-04T14:37:08.005Z,1.63
2022-08-04T14:40:27.546Z,1.62
2022-08-04T14:42:07.335Z,1.63
2022-08-04T14:43:47.115Z,1.63
2022-08-04T14:45:26.843Z,1.76
2022-08-04T14:47:06.616Z,1.63
2022-08-04T14:52:05.922Z,1.63
2022-08-04T14:53:45.687Z,1.76
2022-08-04T14:55:25.419Z,1.62
2022-08-04T14:57:05.187Z,1.9
2022-08-04T15:00:24.738Z,1.49
2022-08-04T15:02:04.492Z,1.9
2022-08-04T15:03:44.252Z,1.49
2022-08-04T15:05:24.014Z,1.9
2022-08-04T15:07:03.800Z,1.49
2022-08-04T15:08:43.537Z,1.62
2022-08-04T15:10:23.313Z,1.76
2022-08-04T15:12:03.075Z,1.76
2022-08-04T15:13:42.835Z,1.76
2022-08-04T15:15:22.600Z,1.62
2022-08-04T15:17:02.390Z,1.76
2022-08-04T15:20:21.888Z,1.63
2022-08-04T15:22:01.757Z,1.63
2022-08-04T15:23:41.429Z,1.63
2022-08-04T15:25:21.186Z,1.76
2022-08-04T15:27:00.974Z,1.49
2022-08-04T15:28:40.727Z,1.63
2022-08-04T15:30:20.499Z,1.77
2022-08-04T15:32:00.241Z,1.63
2022-08-04T15:33:40.026Z,1.49
2022-08-04T15:35:19.783Z,1.62
2022-08-04T15:36:59.547Z,1.76
2022-08-04T15:38:39.304Z,1.5
2022-08-04T15:40:19.066Z,1.63
2022-08-04T15:41:58.828Z,1.62
2022-08-04T15:43:38.598Z,1.62
2022-08-04T15:45:18.362Z,1.62
2022-08-04T15:46:58.157Z,1.62
2022-08-04T15:48:37.886Z,1.62
2022-08-04T15:50:17.693Z,1.62
2022-08-04T15:53:37.184Z,1.49
2022-08-04T15:55:16.953Z,1.63
2022-08-04T15:56:56.720Z,1.49
2022-08-04T16:00:16.256Z,1.49
2022-08-04T16:01:56.020Z,1.49
2022-08-04T16:03:35.770Z,1.89
2022-08-04T16:05:15.541Z,1.49
2022-08-04T16:06:55.313Z,1.49
2022-08-04T16:08:35.076Z,1.49
2022-08-04T16:10:14.818Z,1.77
2022-08-04T16:11:54.591Z,1.49
2022-08-04T16:13:34.372Z,1.62
2022-08-04T16:16:53.936Z,1.62
2022-08-04T16:20:13.423Z,1.64
2022-08-04T16:23:32.960Z,1.49
2022-08-04T16:25:12.709Z,1.49
2022-08-04T16:26:52.485Z,1.62
2022-08-04T16:28:32.239Z,1.22
2022-08-04T16:30:12.021Z,1.77
2022-08-04T16:31:51.764Z,1.36
2022-08-04T16:33:31.540Z,1.49
2022-08-04T16:35:11.302Z,1.49
2022-08-04T16:36:51.069Z,1.63
2022-08-04T16:38:30.834Z,1.5
2022-08-04T16:40:10.603Z,1.5
2022-08-04T16:41:50.350Z,1.35
2022-08-04T16:43:30.128Z,1.63
2022-08-04T16:45:09.877Z,1.5
2022-08-04T16:46:49.659Z,1.5
2022-08-04T16:50:09.170Z,1.49
2022-08-04T16:51:48.947Z,1.49
2022-08-04T16:53:28.712Z,1.49
2022-08-04T16:55:08.481Z,1.49
2022-08-04T16:56:48.230Z,1.49
2022-08-04T17:00:07.773Z,1.49
2022-08-04T17:01:47.530Z,1.63
2022-08-04T17:03:27.305Z,1.5
2022-08-04T17:05:07.059Z,1.5
2022-08-04T17:06:46.833Z,1.5
2022-08-04T17:10:06.361Z,1.49
2022-08-04T17:11:46.118Z,1.35
2022-08-04T17:13:25.892Z,1.49
2022-08-04T17:15:05.657Z,1.5
2022-08-04T17:16:45.422Z,1.49
2022-08-04T17:18:25.175Z,1.5
2022-08-04T17:20:04.946Z,1.49
2022-08-04T17:21:44.733Z,1.36
2022-08-04T17:23:24.471Z,1.49
2022-08-04T17:25:04.240Z,1.36
2022-08-04T17:26:43.997Z,1.49
2022-08-04T17:28:23.800Z,1.5
2022-08-04T17:30:03.549Z,1.5
2022-08-04T17:31:43.301Z,1.5
2022-08-04T17:33:23.054Z,1.36
2022-08-04T17:35:02.842Z,1.36
2022-08-04T17:36:42.621Z,1.36
2022-08-04T17:40:02.155Z,1.5
2022-08-04T17:41:41.897Z,1.5
2022-08-04T17:43:21.647Z,1.5
2022-08-04T17:45:01.430Z,1.36
2022-08-04T17:46:41.236Z,1.5
2022-08-04T17:50:00.700Z,1.36
2022-08-04T17:51:40.459Z,1.49
2022-08-04T17:53:20.218Z,1.36
2022-08-04T17:55:00.036Z,1.36
2022-08-04T17:56:39.754Z,1.36
2022-08-04T17:59:59.276Z,1.49
2022-08-04T18:01:39.045Z,1.36
2022-08-04T18:03:18.804Z,1.36
2022-08-04T18:06:38.375Z,1.49
2022-08-04T18:08:18.103Z,1.5
2022-08-04T18:09:57.876Z,1.36
2022-08-04T18:11:37.638Z,1.49
2022-08-04T18:13:17.418Z,1.5
2022-08-04T18:14:57.167Z,1.36
2022-08-04T18:16:36.963Z,1.36
2022-08-04T18:18:16.697Z,1.5
2022-08-04T18:19:56.465Z,1.36
2022-08-04T18:21:36.230Z,1.49
2022-08-04T18:23:15.972Z,1.36
2022-08-04T18:24:55.784Z,1.08
2022-08-04T18:26:35.563Z,1.21
2022-08-04T18:28:15.294Z,0.93
2022-08-04T18:29:55.048Z,0.93
2022-08-04T18:31:34.819Z,0.52
2022-08-04T18:33:14.570Z,0.52
2022-08-04T18:34:54.347Z,0.79
2022-08-04T18:36:34.159Z,0.79
2022-08-04T18:38:13.891Z,0.66
2022-08-04T18:39:53.618Z,0.52
2022-08-04T18:41:33.433Z,0
2022-08-04T18:43:13.153Z,0
2022-08-04T18:44:52.961Z,0
2022-08-04T18:46:32.712Z,0
2022-08-04T18:48:12.468Z,0
2022-08-04T18:49:52.232Z,0
2022-08-04T18:51:32.008Z,0
2022-08-04T18:54:51.525Z,0
2022-08-04T18:56:31.305Z,0
2022-08-04T18:59:50.816Z,0
2022-08-04T19:01:30.586Z,0
2022-08-04T19:03:10.334Z,0
2022-08-04T19:04:50.107Z,0
2022-08-04T19:06:29.890Z,0
2022-08-04T19:08:09.631Z,0
2022-08-04T19:09:49.419Z,0
2022-08-04T19:11:29.161Z,0
2022-08-04T19:13:08.911Z,0
2022-08-04T19:14:48.707Z,0
2022-08-04T19:16:28.450Z,0
2022-08-04T19:18:08.248Z,0
2022-08-04T19:19:48.015Z,0
2022-08-04T19:21:27.754Z,0
2022-08-04T19:23:07.514Z,0
2022-08-04T19:24:47.292Z,0
2022-08-04T19:26:27.050Z,0
2022-08-04T19:28:06.800Z,0
2022-08-04T19:29:46.569Z,0
2022-08-04T19:31:26.322Z,0
2022-08-04T19:33:06.092Z,0
2022-08-04T19:34:45.877Z,0
2022-08-04T19:36:25.647Z,0
2022-08-04T19:39:45.192Z,0
2022-08-04T19:41:24.932Z,0
2022-08-04T19:43:04.683Z,0
2022-08-04T19:44:44.444Z,0
2022-08-04T19:46:24.230Z,0
2022-08-04T19:48:03.963Z,0
2022-08-04T19:49:43.778Z,0
2022-08-04T19:51:23.506Z,0
2022-08-04T19:53:03.297Z,0
2022-08-04T19:54:43.045Z,0
2022-08-04T19:56:22.797Z,0
2022-08-04T19:59:42.322Z,0
2022-08-04T20:01:22.094Z,0
2022-08-04T20:03:01.853Z,0
2022-08-04T20:04:41.614Z,0
2022-08-04T20:06:21.386Z,0
2022-08-04T20:08:01.181Z,0
2022-08-04T20:09:40.937Z,0
2022-08-04T20:11:20.666Z,0
2022-08-04T20:13:00.442Z,0
2022-08-04T20:14:40.227Z,0
2022-08-04T20:16:19.986Z,0
2022-08-04T20:17:59.723Z,0
2022-08-04T20:19:39.528Z,0
2022-08-04T20:21:19.252Z,0
2022-08-04T20:22:59.020Z,0
2022-08-04T20:24:38.810Z,0
2022-08-04T20:26:18.545Z,0
2022-08-04T20:27:58.315Z,0
2022-08-04T20:29:38.081Z,0
2022-08-04T20:31:17.841Z,0
2022-08-04T20:32:57.647Z,0
2022-08-04T20:34:37.401Z,0
2022-08-04T20:36:17.157Z,0
2022-08-04T20:37:56.887Z,0
2022-08-04T20:39:36.683Z,0
2022-08-04T20:41:16.443Z,0
2022-08-04T20:42:56.230Z,0
2022-08-04T20:44:35.993Z,0
2022-08-04T20:46:15.728Z,0
2022-08-04T20:47:55.521Z,0
2022-08-04T20:49:35.238Z,0
2022-08-04T20:51:15.050Z,0
2022-08-04T20:52:54.790Z,0
2022-08-04T20:54:34.556Z,0
2022-08-04T20:56:14.334Z,0
2022-08-04T20:59:33.836Z,0
2022-08-04T21:01:13.625Z,0
2022-08-04T21:02:53.362Z,0
2022-08-04T21:04:33.151Z,0
2022-08-04T21:07:52.655Z,0
2022-08-04T21:09:32.409Z,0
2022-08-04T21:11:12.186Z,0
2022-08-04T21:12:51.951Z,0
2022-08-04T21:14:31.740Z,0
2022-08-04T21:16:11.500Z,0
2022-08-04T21:17:51.240Z,0
2022-08-04T21:19:31.020Z,0
2022-08-04T21:21:10.794Z,0
2022-08-04T21:22:50.533Z,0
2022-08-04T21:24:30.324Z,0
2022-08-04T21:26:10.081Z,0
2022-08-04T21:27:49.836Z,0
2022-08-04T21:29:29.590Z,0
2022-08-04T21:31:09.358Z,0
2022-08-04T21:32:49.105Z,0
2022-08-04T21:34:28.901Z,0
2022-08-04T21:36:08.653Z,0
2022-08-04T21:37:48.414Z,0
2022-08-04T21:39:28.174Z,0
2022-08-04T21:41:07.969Z,0
2022-08-04T21:42:47.700Z,0
2022-08-04T21:44:27.487Z,0
2022-08-04T21:46:07.259Z,0
2022-08-04T21:49:26.772Z,0
2022-08-04T21:51:06.522Z,0
2022-08-04T21:52:46.314Z,0
2022-08-04T21:54:26.101Z,0
2022-08-04T21:56:05.855Z,0
2022-08-04T21:57:45.583Z,0
2022-08-04T21:59:25.353Z,0
2022-08-04T22:02:44.883Z,0
2022-08-04T22:04:24.678Z,0
2022-08-04T22:06:04.430Z,0
2022-08-04T22:07:44.173Z,0
2022-08-04T22:09:23.974Z,0
2022-08-04T22:11:03.734Z,0
2022-08-04T22:12:43.461Z,0
2022-08-04T22:14:23.213Z,0
2022-08-04T22:16:02.989Z,0
2022-08-04T22:17:42.759Z,0
2022-08-04T22:19:22.516Z,0
2022-08-04T22:21:02.274Z,0
2022-08-04T22:22:42.072Z,0
2022-08-04T22:24:21.837Z,0
2022-08-04T22:26:01.577Z,0
2022-08-04T22:29:21.112Z,0
2022-08-04T22:31:00.874Z,0
2022-08-04T22:32:40.657Z,0
2022-08-04T22:34:20.429Z,0
2022-08-04T22:36:00.185Z,0
2022-08-04T22:39:19.692Z,0
2022-08-04T22:40:59.483Z,0
2022-08-04T22:42:39.252Z,0
2022-08-04T22:44:19.002Z,0
2022-08-04T22:45:58.772Z,0
2022-08-04T22:49:18.325Z,0
2022-08-04T22:50:58.061Z,0
2022-08-04T22:52:37.792Z,0
2022-08-04T22:54:17.564Z,0
2022-08-04T22:55:57.332Z,0
2022-08-04T22:57:37.092Z,0
2022-08-04T22:59:16.901Z,0
2022-08-04T23:02:36.416Z,0
2022-08-04T23:05:55.909Z,0
2022-08-04T23:07:35.670Z,0
2022-08-04T23:09:15.462Z,0
2022-08-04T23:10:55.202Z,0
2022-08-04T23:12:34.969Z,0
2022-08-04T23:14:14.734Z,0
2022-08-04T23:15:54.509Z,0
2022-08-04T23:17:34.286Z,0
2022-08-04T23:19:14.024Z,0
2022-08-04T23:20:53.791Z,0
2022-08-04T23:22:33.592Z,0
2022-08-04T23:24:13.342Z,0
2022-08-04T23:25:53.097Z,0
2022-08-04T23:27:32.877Z,0
2022-08-04T23:29:12.641Z,0
2022-08-04T23:30:52.375Z,0
2022-08-04T23:32:32.131Z,0
2022-08-04T23:34:11.941Z,0
2022-08-04T23:35:51.673Z,0
2022-08-04T23:39:11.215Z,0
2022-08-04T23:40:50.983Z,0
2022-08-04T23:42:30.746Z,0
2022-08-04T23:44:10.520Z,0
2022-08-04T23:45:50.240Z,0
2022-08-04T23:49:09.799Z,0
2022-08-04T23:50:49.971Z,0
2022-08-04T23:52:29.328Z,0
2022-08-04T23:54:09.100Z,0
2022-08-04T23:55:48.864Z,0
2022-08-04T23:57:28.633Z,0
2022-08-04T23:59:08.397Z,0
